createdAt,value
2018-08-04T00:01:19.077Z,100.00
2018-08-04T00:02:50.620Z,100.00
2018-08-04T00:04:14.084Z,100.00
2018-08-04T00:05:45.687Z,100.00
2018-08-04T00:07:09.090Z,100.00
2018-08-04T00:08:40.699Z,100.00
2018-08-04T00:10:04.403Z,100.00
2018-08-04T00:11:31.884Z,100.00
2018-08-04T00:12:59.373Z,100.00
2018-08-04T00:14:30.973Z,100.00
2018-08-04T00:15:54.367Z,100.00
2018-08-04T00:17:22.019Z,100.00
2018-08-04T00:18:49.591Z,100.00
2018-08-04T00:20:17.068Z,100.00
2018-08-04T00:21:44.971Z,100.00
2018-08-04T00:23:16.489Z,100.00
2018-08-04T00:24:43.893Z,100.00
2018-08-04T00:26:07.423Z,100.00
2018-08-04T00:27:34.958Z,100.00
2018-08-04T00:29:02.589Z,100.00
2018-08-04T00:30:34.285Z,100.00
2018-08-04T00:31:57.769Z,100.00
2018-08-04T00:33:25.412Z,100.00
2018-08-04T00:34:52.824Z,100.00
2018-08-04T00:36:20.307Z,100.00
2018-08-04T00:37:47.875Z,100.00
2018-08-04T00:39:15.386Z,100.00
2018-08-04T00:40:46.842Z,100.00
2018-08-04T00:42:10.414Z,100.00
2018-08-04T00:43:38.029Z,100.00
2018-08-04T00:45:05.576Z,100.00
2018-08-04T00:46:37.186Z,100.00
2018-08-04T00:48:04.632Z,100.00
2018-08-04T00:49:28.102Z,100.00
2018-08-04T00:50:55.786Z,100.00
2018-08-04T00:52:27.158Z,100.00
2018-08-04T00:53:50.592Z,100.00
2018-08-04T00:55:18.044Z,100.00
2018-08-04T00:56:45.478Z,100.00
2018-08-04T00:58:13.001Z,100.00
2018-08-04T00:59:44.497Z,100.00
2018-08-04T01:01:07.925Z,100.00
2018-08-04T01:02:39.374Z,100.00
2018-08-04T01:04:02.783Z,100.00
2018-08-04T01:05:30.304Z,100.00
2018-08-04T01:07:01.743Z,100.00
2018-08-04T01:08:25.121Z,100.00
2018-08-04T01:09:56.704Z,100.00
2018-08-04T01:11:20.377Z,100.00
2018-08-04T01:12:51.937Z,100.00
2018-08-04T01:14:15.462Z,100.00
2018-08-04T01:15:43.025Z,100.00
2018-08-04T01:17:10.666Z,100.00
2018-08-04T01:18:38.179Z,100.00
2018-08-04T01:20:05.614Z,100.00
2018-08-04T01:21:33.316Z,100.00
2018-08-04T01:23:04.770Z,100.00
2018-08-04T01:24:28.399Z,100.00
2018-08-04T01:25:55.914Z,100.00
2018-08-04T01:27:23.210Z,100.00
2018-08-04T01:28:50.782Z,100.00
2018-08-04T01:30:18.433Z,100.00
2018-08-04T01:31:45.873Z,100.00
2018-08-04T01:33:13.266Z,100.00
2018-08-04T01:34:40.791Z,100.00
2018-08-04T01:36:12.314Z,100.00
2018-08-04T01:37:36.028Z,100.00
2018-08-04T01:39:03.352Z,100.00
2018-08-04T01:40:30.792Z,100.00
2018-08-04T01:41:58.172Z,100.00
2018-08-04T01:43:25.811Z,100.00
2018-08-04T01:44:53.412Z,100.00
2018-08-04T01:46:20.685Z,100.00
2018-08-04T01:47:48.239Z,100.00
2018-08-04T01:49:15.761Z,100.00
2018-08-04T01:50:43.298Z,100.00
2018-08-04T01:52:10.831Z,100.00
2018-08-04T01:53:42.320Z,100.00
2018-08-04T01:55:05.946Z,100.00
2018-08-04T01:56:33.545Z,100.00
2018-08-04T01:58:04.994Z,100.00
2018-08-04T01:59:28.586Z,100.00
2018-08-04T02:00:56.146Z,100.00
2018-08-04T02:02:27.678Z,100.00
2018-08-04T02:03:51.197Z,100.00
2018-08-04T02:05:22.712Z,100.00
2018-08-04T02:06:46.318Z,100.00
2018-08-04T02:08:17.834Z,100.00
2018-08-04T02:09:41.245Z,100.00
2018-08-04T02:11:12.719Z,100.00
2018-08-04T02:12:36.081Z,100.00
2018-08-04T02:14:03.459Z,100.00
2018-08-04T02:15:31.102Z,100.00
2018-08-04T02:17:02.479Z,100.00
2018-08-04T02:18:25.888Z,100.00
2018-08-04T02:19:53.340Z,100.00
2018-08-04T02:21:20.911Z,100.00
2018-08-04T02:22:48.370Z,100.00
2018-08-04T02:24:15.983Z,100.00
2018-08-04T02:25:43.564Z,100.00
2018-08-04T02:27:10.881Z,100.00
2018-08-04T02:28:38.487Z,100.00
2018-08-04T02:30:05.989Z,100.00
2018-08-04T02:31:37.387Z,100.00
2018-08-04T02:33:00.960Z,100.00
2018-08-04T02:34:28.572Z,100.00
2018-08-04T02:36:00.026Z,100.00
2018-08-04T02:37:23.422Z,100.00
2018-08-04T02:38:50.945Z,100.00
2018-08-04T02:40:18.458Z,100.00
2018-08-04T02:41:46.103Z,100.00
2018-08-04T02:43:13.577Z,100.00
2018-08-04T02:44:45.056Z,100.00
2018-08-04T02:46:08.630Z,100.00
2018-08-04T02:47:36.247Z,100.00
2018-08-04T02:49:03.695Z,100.00
2018-08-04T02:50:36.358Z,100.00
2018-08-04T02:51:58.889Z,100.00
2018-08-04T02:53:30.360Z,100.00
2018-08-04T02:54:57.836Z,100.00
2018-08-04T02:56:21.312Z,100.00
2018-08-04T02:57:48.876Z,100.00
2018-08-04T02:59:16.327Z,100.00
2018-08-04T03:00:47.813Z,100.00
2018-08-04T03:02:15.153Z,100.00
2018-08-04T03:03:38.605Z,100.00
2018-08-04T03:05:06.346Z,100.00
2018-08-04T03:06:37.909Z,100.00
2018-08-04T03:08:05.457Z,100.00
2018-08-04T03:09:33.028Z,100.00
2018-08-04T03:11:00.395Z,100.00
2018-08-04T03:12:27.948Z,100.00
2018-08-04T03:13:55.478Z,100.00
2018-08-04T03:15:23.066Z,100.00
2018-08-04T03:16:46.571Z,100.00
2018-08-04T03:18:13.891Z,100.00
2018-08-04T03:19:41.419Z,100.00
2018-08-04T03:21:05.896Z,100.00
2018-08-04T03:22:36.547Z,100.00
2018-08-04T03:24:04.204Z,100.00
2018-08-04T03:25:31.494Z,100.00
2018-08-04T03:26:59.080Z,100.00
2018-08-04T03:28:26.641Z,100.00
2018-08-04T03:29:54.185Z,100.00
2018-08-04T03:31:21.847Z,100.00
2018-08-04T03:32:49.388Z,100.00
2018-08-04T03:34:20.843Z,100.00
2018-08-04T03:35:44.338Z,100.00
2018-08-04T03:37:15.741Z,100.00
2018-08-04T03:38:43.444Z,100.00
2018-08-04T03:40:11.052Z,100.00
2018-08-04T03:41:38.531Z,100.00
2018-08-04T03:43:01.968Z,100.00
2018-08-04T03:44:33.695Z,100.00
2018-08-04T03:46:01.178Z,100.00
2018-08-04T03:47:28.606Z,100.00
2018-08-04T03:48:52.031Z,100.00
2018-08-04T03:50:19.554Z,100.00
2018-08-04T03:51:51.230Z,100.00
2018-08-04T03:53:14.509Z,100.00
2018-08-04T03:54:42.030Z,100.00
2018-08-04T03:56:13.652Z,100.00
2018-08-04T03:57:36.944Z,100.00
2018-08-04T03:59:04.478Z,100.00
2018-08-04T04:00:32.137Z,100.00
2018-08-04T04:01:59.747Z,100.00
2018-08-04T04:03:27.363Z,100.00
2018-08-04T04:04:58.916Z,100.00
2018-08-04T04:06:26.238Z,100.00
2018-08-04T04:07:49.705Z,100.00
2018-08-04T04:09:16.985Z,100.00
2018-08-04T04:10:48.524Z,100.00
2018-08-04T04:12:16.131Z,100.00
2018-08-04T04:13:39.613Z,100.00
2018-08-04T04:15:07.238Z,100.00
2018-08-04T04:16:35.031Z,100.00
2018-08-04T04:18:02.611Z,100.00
2018-08-04T04:19:34.110Z,100.00
2018-08-04T04:20:57.664Z,100.00
2018-08-04T04:29:06.523Z,100.00
2018-08-04T04:30:43.065Z,100.00
2018-08-04T04:32:06.130Z,100.00
2018-08-04T04:33:33.690Z,100.00
2018-08-04T04:35:01.355Z,100.00
2018-08-04T04:36:42.543Z,100.00
2018-08-04T04:44:04.532Z,100.00
2018-08-04T04:45:41.129Z,100.00
2018-08-04T04:47:08.263Z,100.00
2018-08-04T04:48:35.836Z,100.00
2018-08-04T04:50:03.466Z,100.00
2018-08-04T04:51:30.907Z,100.00
2018-08-04T04:52:58.475Z,100.00
2018-08-04T04:54:29.908Z,100.00
2018-08-04T04:55:53.453Z,100.00
2018-08-04T04:57:25.018Z,100.00
2018-08-04T04:58:48.602Z,100.00
2018-08-04T05:00:16.192Z,100.00
2018-08-04T05:01:43.694Z,100.00
2018-08-04T05:03:15.193Z,100.00
2018-08-04T05:04:38.694Z,100.00
2018-08-04T05:06:10.265Z,100.00
2018-08-04T05:07:34.014Z,100.00
2018-08-04T05:09:20.849Z,100.00
2018-08-04T05:11:30.946Z,100.00
2018-08-04T05:12:54.260Z,100.00
2018-08-04T05:14:21.700Z,100.00
2018-08-04T05:15:49.307Z,100.00
2018-08-04T05:17:20.715Z,100.00
2018-08-04T05:18:44.077Z,100.00
2018-08-04T05:20:15.581Z,100.00
2018-08-04T05:21:39.264Z,100.00
2018-08-04T05:23:20.561Z,100.00
2018-08-04T05:25:42.403Z,100.00
2018-08-04T05:27:09.320Z,100.00
2018-08-04T05:31:02.450Z,100.00
2018-08-04T05:32:29.418Z,100.00
2018-08-04T05:33:56.804Z,100.00
2018-08-04T05:35:24.295Z,100.00
2018-08-04T05:36:51.881Z,100.00
2018-08-04T05:38:23.193Z,100.00
2018-08-04T05:39:46.969Z,100.00
2018-08-04T05:41:14.575Z,100.00
2018-08-04T05:42:42.139Z,100.00
2018-08-04T05:44:09.517Z,100.00
2018-08-04T05:45:37.164Z,100.00
2018-08-04T05:47:04.878Z,100.00
2018-08-04T05:48:32.314Z,100.00
2018-08-04T05:49:59.791Z,100.00
2018-08-04T05:51:27.402Z,100.00
2018-08-04T05:52:55.032Z,100.00
2018-08-04T05:54:22.738Z,100.00
2018-08-04T05:55:50.389Z,100.00
2018-08-04T05:57:18.150Z,100.00
2018-08-04T05:58:45.606Z,100.00
2018-08-04T06:00:13.272Z,100.00
2018-08-04T06:01:40.815Z,100.00
2018-08-04T06:03:08.446Z,100.00
2018-08-04T06:04:36.191Z,100.00
2018-08-04T06:06:03.810Z,100.00
2018-08-04T06:07:31.368Z,100.00
2018-08-04T06:08:59.092Z,100.00
2018-08-04T06:10:26.756Z,100.00
2018-08-04T06:11:54.403Z,100.00
2018-08-04T06:13:21.945Z,100.00
2018-08-04T06:14:49.631Z,100.00
2018-08-04T06:16:17.242Z,100.00
2018-08-04T06:17:44.884Z,100.00
2018-08-04T06:19:16.521Z,100.00
2018-08-04T06:20:39.964Z,100.00
2018-08-04T06:22:07.653Z,100.00
2018-08-04T06:23:35.253Z,100.00
2018-08-04T06:25:02.685Z,100.00
2018-08-04T06:26:30.275Z,100.00
2018-08-04T06:28:01.974Z,100.00
2018-08-04T06:29:25.634Z,100.00
2018-08-04T06:30:53.273Z,100.00
2018-08-04T06:32:20.728Z,100.00
2018-08-04T06:33:48.325Z,100.00
2018-08-04T06:35:20.110Z,100.00
2018-08-04T06:36:47.610Z,100.00
2018-08-04T06:38:14.894Z,100.00
2018-08-04T06:39:38.576Z,100.00
2018-08-04T06:41:06.351Z,100.00
2018-08-04T06:42:37.945Z,100.00
2018-08-04T06:44:01.468Z,100.00
2018-08-04T06:45:29.082Z,100.00
2018-08-04T06:46:56.794Z,100.00
2018-08-04T06:48:24.193Z,100.00
2018-08-04T06:49:55.838Z,100.00
2018-08-04T06:51:19.473Z,100.00
2018-08-04T06:52:47.045Z,100.00
2018-08-04T06:54:14.531Z,100.00
2018-08-04T06:55:42.124Z,100.00
2018-08-04T06:57:09.674Z,100.00
2018-08-04T06:58:37.399Z,100.00
2018-08-04T07:00:08.956Z,100.00
2018-08-04T07:01:32.580Z,100.00
2018-08-04T07:03:00.056Z,100.00
2018-08-04T07:04:27.937Z,100.00
2018-08-04T07:05:55.500Z,100.00
2018-08-04T07:07:23.191Z,100.00
2018-08-04T07:08:50.723Z,100.00
2018-08-04T07:10:22.266Z,100.00
2018-08-04T07:11:45.866Z,100.00
2018-08-04T07:13:13.672Z,100.00
2018-08-04T07:14:44.920Z,100.00
2018-08-04T07:16:08.479Z,100.00
2018-08-04T07:17:36.028Z,100.00
2018-08-04T07:19:07.419Z,100.00
2018-08-04T07:20:31.171Z,100.00
2018-08-04T07:21:58.702Z,100.00
2018-08-04T07:23:26.425Z,100.00
2018-08-04T07:24:54.111Z,100.00
2018-08-04T07:26:21.794Z,100.00
2018-08-04T07:27:49.437Z,100.00
2018-08-04T07:29:17.016Z,100.00
2018-08-04T07:30:48.453Z,100.00
2018-08-04T07:32:11.801Z,100.00
2018-08-04T07:33:39.394Z,100.00
2018-08-04T07:35:10.969Z,100.00
2018-08-04T07:36:34.518Z,100.00
2018-08-04T07:38:02.290Z,100.00
2018-08-04T07:39:29.798Z,100.00
2018-08-04T07:40:57.534Z,100.00
2018-08-04T07:42:29.076Z,100.00
2018-08-04T07:43:56.517Z,100.00
2018-08-04T07:45:24.072Z,100.00
2018-08-04T07:46:51.740Z,100.00
2018-08-04T07:48:15.260Z,100.00
2018-08-04T07:49:46.979Z,100.00
2018-08-04T07:51:10.229Z,100.00
2018-08-04T07:52:41.853Z,100.00
2018-08-04T07:54:05.488Z,100.00
2018-08-04T07:55:37.166Z,100.00
2018-08-04T07:57:00.930Z,100.00
2018-08-04T07:58:28.495Z,100.00
2018-08-04T08:00:00.150Z,100.00
2018-08-04T08:01:27.986Z,100.00
2018-08-04T08:02:55.506Z,100.00
2018-08-04T08:04:19.139Z,100.00
2018-08-04T08:05:46.647Z,100.00
2018-08-04T08:07:14.322Z,100.00
2018-08-04T08:08:45.826Z,100.00
2018-08-04T08:10:13.381Z,100.00
2018-08-04T08:11:37.154Z,100.00
2018-08-04T08:13:04.637Z,100.00
2018-08-04T08:14:36.299Z,100.00
2018-08-04T08:15:59.990Z,100.00
2018-08-04T08:17:27.749Z,100.00
2018-08-04T08:18:55.375Z,100.00
2018-08-04T08:20:23.081Z,100.00
2018-08-04T08:21:54.601Z,100.00
2018-08-04T08:23:22.329Z,100.00
2018-08-04T08:24:45.908Z,100.00
2018-08-04T08:26:13.531Z,100.00
2018-08-04T08:27:41.293Z,100.00
2018-08-04T08:29:09.190Z,100.00
2018-08-04T08:30:36.932Z,100.00
2018-08-04T08:32:04.543Z,100.00
2018-08-04T08:33:32.115Z,100.00
2018-08-04T08:34:59.626Z,100.00
2018-08-04T08:36:27.202Z,100.00
2018-08-04T08:37:54.943Z,100.00
2018-08-04T08:39:22.566Z,100.00
2018-08-04T08:40:50.078Z,100.00
2018-08-04T08:42:17.863Z,100.00
2018-08-04T08:43:49.461Z,100.00
2018-08-04T08:45:12.928Z,100.00
2018-08-04T08:46:44.499Z,100.00
2018-08-04T08:48:08.298Z,100.00
2018-08-04T08:49:35.971Z,100.00
2018-08-04T08:51:03.722Z,100.00
2018-08-04T08:51:34.119Z,100.00
2018-08-04T08:53:01.013Z,100.00
2018-08-04T08:54:28.733Z,100.00
2018-08-04T08:55:56.215Z,100.00
2018-08-04T08:57:23.866Z,100.00
2018-08-04T08:58:55.495Z,100.00
2018-08-04T09:00:19.099Z,100.00
2018-08-04T09:01:46.772Z,100.00
2018-08-04T09:03:14.499Z,100.00
2018-08-04T09:04:41.988Z,100.00
2018-08-04T09:06:13.285Z,100.00
2018-08-04T09:07:36.529Z,100.00
2018-08-04T09:09:04.107Z,100.00
2018-08-04T09:10:35.834Z,100.00
2018-08-04T09:11:59.567Z,100.00
2018-08-04T09:13:31.290Z,100.00
2018-08-04T09:14:54.924Z,100.00
2018-08-04T09:16:22.407Z,100.00
2018-08-04T09:17:49.661Z,100.00
2018-08-04T09:19:17.378Z,100.00
2018-08-04T09:20:48.780Z,100.00
2018-08-04T09:22:12.545Z,100.00
2018-08-04T09:23:40.068Z,100.00
2018-08-04T09:25:11.658Z,100.00
2018-08-04T09:26:35.289Z,100.00
2018-08-04T09:28:02.166Z,100.00
2018-08-04T09:29:29.797Z,100.00
2018-08-04T09:31:01.417Z,100.00
2018-08-04T09:32:24.865Z,100.00
2018-08-04T09:33:52.566Z,100.00
2018-08-04T09:35:23.582Z,100.00
2018-08-04T09:36:46.508Z,100.00
2018-08-04T09:38:13.738Z,100.00
2018-08-04T09:39:45.175Z,100.00
2018-08-04T09:41:12.968Z,100.00
2018-08-04T09:42:36.593Z,100.00
2018-08-04T09:44:04.120Z,100.00
2018-08-04T09:45:31.911Z,100.00
2018-08-04T09:46:59.472Z,100.00
2018-08-04T09:48:26.461Z,100.00
2018-08-04T09:49:57.922Z,100.00
2018-08-04T09:51:21.641Z,100.00
2018-08-04T09:52:53.180Z,100.00
2018-08-04T09:54:16.788Z,100.00
2018-08-04T09:55:44.469Z,100.00
2018-08-04T09:57:11.860Z,100.00
2018-08-04T09:58:39.583Z,100.00
2018-08-04T10:00:06.929Z,100.00
2018-08-04T10:01:34.368Z,100.00
2018-08-04T10:03:02.090Z,100.00
2018-08-04T10:04:29.712Z,100.00
2018-08-04T10:06:01.500Z,100.00
2018-08-04T10:07:25.238Z,100.00
2018-08-04T10:08:52.147Z,100.00
2018-08-04T10:10:19.739Z,100.00
2018-08-04T10:11:47.381Z,100.00
2018-08-04T10:13:14.672Z,100.00
2018-08-04T10:14:41.991Z,100.00
2018-08-04T10:16:09.730Z,100.00
2018-08-04T10:17:36.747Z,97.67
2018-08-04T10:19:04.434Z,96.39
2018-08-04T10:20:37.035Z,97.48
2018-08-04T10:21:59.892Z,97.17
2018-08-04T10:23:27.494Z,98.15
2018-08-04T10:25:01.968Z,95.51
2018-08-04T10:26:22.763Z,96.76
2018-08-04T10:27:49.973Z,96.68
2018-08-04T10:29:21.636Z,96.81
2018-08-04T10:30:45.401Z,99.79
2018-08-04T10:32:13.099Z,97.85
2018-08-04T10:33:40.296Z,96.55
2018-08-04T10:35:07.930Z,98.57
2018-08-04T10:36:35.775Z,98.29
2018-08-04T10:38:06.886Z,98.23
2018-08-04T10:39:34.624Z,97.17
2018-08-04T10:40:58.011Z,98.63
2018-08-04T10:42:25.728Z,97.69
2018-08-04T10:43:53.539Z,98.01
2018-08-04T10:45:24.726Z,97.99
2018-08-04T10:46:48.116Z,97.11
2018-08-04T10:48:19.669Z,98.14
2018-08-04T10:49:42.931Z,94.44
2018-08-04T10:51:10.267Z,95.47
2018-08-04T10:52:38.067Z,93.61
2018-08-04T10:54:05.791Z,92.69
2018-08-04T10:55:33.538Z,93.62
2018-08-04T10:57:01.041Z,92.29
2018-08-04T10:58:32.767Z,95.44
2018-08-04T10:59:56.427Z,100.00
2018-08-04T11:01:23.984Z,100.00
2018-08-04T11:02:50.732Z,100.00
2018-08-04T11:04:22.359Z,100.00
2018-08-04T11:05:45.886Z,91.75
2018-08-04T11:07:17.134Z,90.89
2018-08-04T11:08:44.709Z,91.33
2018-08-04T11:10:08.468Z,90.18
2018-08-04T11:11:36.138Z,93.78
2018-08-04T11:13:03.900Z,93.39
2018-08-04T11:14:31.126Z,91.77
2018-08-04T11:16:02.892Z,92.05
2018-08-04T11:17:26.670Z,91.20
2018-08-04T11:18:54.400Z,93.15
2018-08-04T11:20:22.041Z,90.68
2018-08-04T11:21:49.780Z,90.96
2018-08-04T11:23:21.442Z,88.68
2018-08-04T11:24:45.182Z,91.34
2018-08-04T11:26:12.684Z,91.03
2018-08-04T11:27:44.424Z,85.96
2018-08-04T11:29:12.101Z,89.84
2018-08-04T11:30:35.870Z,88.17
2018-08-04T11:32:03.487Z,84.25
2018-08-04T11:33:31.109Z,86.15
2018-08-04T11:34:58.877Z,85.66
2018-08-04T11:36:26.700Z,84.40
2018-08-04T11:37:54.370Z,80.04
2018-08-04T11:39:22.012Z,81.73
2018-08-04T11:40:49.883Z,83.82
2018-08-04T11:42:17.399Z,84.08
2018-08-04T11:43:44.941Z,84.14
2018-08-04T11:45:12.699Z,81.88
2018-08-04T11:46:40.400Z,80.54
2018-08-04T11:48:08.127Z,80.21
2018-08-04T11:49:35.983Z,79.71
2018-08-04T11:51:07.619Z,80.26
2018-08-04T11:52:31.324Z,79.18
2018-08-04T11:53:58.933Z,79.94
2018-08-04T11:55:30.616Z,77.23
2018-08-04T11:56:58.345Z,76.43
2018-08-04T11:58:22.064Z,75.04
2018-08-04T11:59:49.672Z,72.70
2018-08-04T12:01:21.375Z,73.31
2018-08-04T12:02:45.076Z,72.47
2018-08-04T12:04:16.909Z,73.73
2018-08-04T12:05:40.790Z,71.06
2018-08-04T12:07:08.548Z,71.02
2018-08-04T12:08:36.319Z,70.37
2018-08-04T12:10:03.832Z,71.63
2018-08-04T12:11:35.213Z,70.92
2018-08-04T12:12:58.734Z,69.37
2018-08-04T12:14:30.648Z,68.63
2018-08-04T12:15:58.403Z,67.20
2018-08-04T12:17:21.945Z,65.58
2018-08-04T12:18:53.658Z,64.60
2018-08-04T12:20:17.413Z,63.69
2018-08-04T12:21:48.759Z,61.30
2018-08-04T12:23:12.280Z,63.15
2018-08-04T12:24:39.795Z,62.74
2018-08-04T12:26:11.161Z,61.18
2018-08-04T12:27:34.975Z,60.53
2018-08-04T12:29:02.840Z,61.98
2018-08-04T12:30:30.010Z,60.58
2018-08-04T12:31:57.706Z,61.83
2018-08-04T12:33:25.431Z,60.92
2018-08-04T12:34:57.221Z,59.22
2018-08-04T12:36:20.333Z,57.69
2018-08-04T12:37:52.037Z,56.81
2018-08-04T12:39:15.567Z,58.30
2018-08-04T12:40:42.953Z,58.87
2018-08-04T12:42:10.750Z,60.22
2018-08-04T12:43:42.425Z,59.58
2018-08-04T12:45:06.074Z,57.51
2018-08-04T12:46:37.896Z,57.11
2018-08-04T12:48:01.581Z,56.89
2018-08-04T12:49:28.451Z,57.82
2018-08-04T12:50:56.408Z,57.74
2018-08-04T12:52:24.125Z,57.09
2018-08-04T12:53:55.114Z,56.74
2018-08-04T12:55:18.791Z,57.53
2018-08-04T12:56:46.504Z,54.88
2018-08-04T12:58:18.167Z,54.37
2018-08-04T12:59:41.650Z,54.65
2018-08-04T13:01:09.411Z,55.29
2018-08-04T13:02:41.248Z,56.23
2018-08-04T13:04:05.027Z,55.00
2018-08-04T13:05:32.305Z,54.79
2018-08-04T13:07:00.007Z,54.11
2018-08-04T13:08:27.836Z,53.51
2018-08-04T13:09:55.526Z,54.14
2018-08-04T13:11:23.176Z,53.13
2018-08-04T13:12:54.915Z,53.40
2018-08-04T13:14:22.577Z,54.62
2018-08-04T13:15:46.148Z,53.95
2018-08-04T13:17:13.757Z,52.83
2018-08-04T13:18:41.374Z,53.38
2018-08-04T13:20:09.146Z,54.72
2018-08-04T13:21:36.880Z,54.71
2018-08-04T13:23:04.640Z,54.56
2018-08-04T13:24:31.995Z,54.19
2018-08-04T13:25:59.781Z,54.45
2018-08-04T13:27:27.460Z,54.49
2018-08-04T13:28:55.043Z,54.74
2018-08-04T13:30:22.876Z,54.05
2018-08-04T13:31:49.860Z,56.01
2018-08-04T13:33:17.577Z,56.24
2018-08-04T13:34:45.266Z,57.15
2018-08-04T13:36:12.660Z,58.10
2018-08-04T13:37:40.368Z,58.98
2018-08-04T13:39:08.146Z,61.07
2018-08-04T13:40:39.858Z,60.00
2018-08-04T13:42:07.472Z,58.46
2018-08-04T13:43:31.263Z,57.72
2018-08-04T13:44:58.449Z,58.19
2018-08-04T13:46:30.168Z,58.56
2018-08-04T13:47:53.940Z,57.53
2018-08-04T13:49:21.032Z,57.97
2018-08-04T13:50:48.194Z,58.25
2018-08-04T13:52:15.973Z,57.92
2018-08-04T13:53:43.568Z,57.11
2018-08-04T13:55:11.129Z,56.64
2018-08-04T13:56:38.941Z,57.64
2018-08-04T13:58:06.285Z,57.14
2018-08-04T13:59:34.071Z,59.14
2018-08-04T14:01:01.718Z,58.94
2018-08-04T14:02:28.448Z,59.38
2018-08-04T14:03:56.052Z,58.78
2018-08-04T14:09:21.764Z,64.58
2018-08-04T14:10:49.259Z,64.55
2018-08-04T14:12:16.765Z,64.16
2018-08-04T14:13:44.434Z,65.94
2018-08-04T14:15:16.289Z,65.20
2018-08-04T14:16:39.868Z,64.27
2018-08-04T14:18:07.522Z,68.69
2018-08-04T14:19:34.899Z,66.73
2018-08-04T14:21:06.578Z,64.34
2018-08-04T14:22:30.206Z,62.85
2018-08-04T14:23:57.939Z,62.56
2018-08-04T14:25:25.370Z,63.05
2018-08-04T14:26:53.059Z,63.91
2018-08-04T14:28:20.565Z,64.67
2018-08-04T14:29:48.417Z,63.86
2018-08-04T14:31:16.115Z,63.67
2018-08-04T14:32:47.471Z,65.34
2018-08-04T14:34:11.049Z,66.91
2018-08-04T14:35:42.523Z,72.67
2018-08-04T14:37:06.211Z,69.50
2018-08-04T14:38:33.760Z,69.68
2018-08-04T14:40:01.301Z,68.04
2018-08-04T14:41:29.026Z,66.65
2018-08-04T14:42:56.748Z,66.92
2018-08-04T14:44:23.803Z,66.34
2018-08-04T14:45:51.577Z,65.77
2018-08-04T14:47:19.307Z,66.38
2018-08-04T14:48:46.992Z,67.61
2018-08-04T14:50:14.394Z,66.55
2018-08-04T14:51:42.111Z,67.29
2018-08-04T14:53:09.492Z,68.63
2018-08-04T14:54:37.125Z,69.84
2018-08-04T14:56:04.944Z,72.80
2018-08-04T14:57:36.270Z,75.25
2018-08-04T14:59:03.970Z,74.54
2018-08-04T15:00:31.662Z,74.75
2018-08-04T15:01:58.610Z,77.68
2018-08-04T15:03:22.174Z,80.01
2018-08-04T15:04:49.652Z,81.66
2018-08-04T15:06:17.217Z,82.50
2018-08-04T15:07:48.789Z,79.40
2018-08-04T15:09:16.333Z,79.11
2018-08-04T15:10:43.723Z,79.04
2018-08-04T15:12:07.450Z,78.98
2018-08-04T15:13:34.952Z,78.14
2018-08-04T15:15:02.652Z,79.36
2018-08-04T15:16:30.424Z,78.04
2018-08-04T15:17:58.015Z,78.76
2018-08-04T15:19:25.445Z,75.99
2018-08-04T15:20:57.109Z,74.42
2018-08-04T15:22:20.923Z,74.52
2018-08-04T15:23:48.587Z,75.78
2018-08-04T15:25:16.075Z,75.46
2018-08-04T15:26:43.713Z,73.32
2018-08-04T15:28:11.381Z,74.29
2018-08-04T15:29:39.005Z,74.14
2018-08-04T15:31:06.784Z,74.31
2018-08-04T15:32:34.366Z,74.56
2018-08-04T15:34:02.094Z,75.59
2018-08-04T15:35:33.748Z,76.32
2018-08-04T15:37:01.424Z,77.50
2018-08-04T15:38:25.089Z,77.92
2018-08-04T15:39:56.786Z,78.58
2018-08-04T15:41:24.467Z,79.68
2018-08-04T15:42:52.189Z,79.90
2018-08-04T15:44:15.903Z,79.51
2018-08-04T15:45:47.325Z,80.26
2018-08-04T15:47:10.458Z,80.35
2018-08-04T15:48:38.257Z,81.80
2018-08-04T15:50:09.622Z,82.66
2018-08-04T15:51:32.872Z,84.53
2018-08-04T15:53:00.629Z,85.50
2018-08-04T15:54:28.327Z,87.33
2018-08-04T15:56:00.007Z,87.76
2018-08-04T15:57:23.631Z,88.78
2018-08-04T15:58:54.971Z,90.44
2018-08-04T16:00:18.556Z,90.01
2018-08-04T16:01:46.273Z,92.06
2018-08-04T16:03:17.832Z,91.34
2018-08-04T16:04:41.220Z,89.95
2018-08-04T16:06:08.833Z,90.37
2018-08-04T16:07:40.515Z,88.64
2018-08-04T16:09:08.172Z,87.66
2018-08-04T16:10:35.751Z,88.63
2018-08-04T16:11:59.458Z,88.56
2018-08-04T16:13:31.223Z,90.41
2018-08-04T16:14:54.554Z,92.27
2018-08-04T16:16:26.221Z,93.74
2018-08-04T16:17:49.569Z,95.08
2018-08-04T16:19:21.139Z,96.20
2018-08-04T16:20:48.595Z,95.66
2018-08-04T16:22:12.322Z,94.19
2018-08-04T16:23:43.946Z,93.93
2018-08-04T16:25:07.194Z,92.37
2018-08-04T16:26:38.715Z,88.57
2018-08-04T16:28:02.085Z,87.88
2018-08-04T16:29:29.602Z,87.64
2018-08-04T16:30:57.280Z,85.66
2018-08-04T16:32:24.998Z,84.61
2018-08-04T16:33:52.731Z,83.28
2018-08-04T16:35:20.339Z,80.64
2018-08-04T16:36:48.050Z,82.04
2018-08-04T16:38:15.616Z,77.80
2018-08-04T16:39:43.371Z,78.41
2018-08-04T16:41:10.882Z,76.61
2018-08-04T16:42:38.449Z,75.33
2018-08-04T16:44:06.098Z,73.31
2018-08-04T16:45:37.795Z,72.77
2018-08-04T16:47:01.491Z,72.13
2018-08-04T16:48:28.852Z,71.73
2018-08-04T16:49:56.492Z,72.93
2018-08-04T16:51:23.330Z,70.94
2018-08-04T16:52:51.162Z,72.92
2018-08-04T16:54:18.798Z,72.59
2018-08-04T16:55:45.810Z,74.95
2018-08-04T16:57:13.129Z,74.67
2018-08-04T16:58:40.657Z,74.49
2018-08-04T17:00:12.341Z,74.95
2018-08-04T17:01:35.660Z,76.48
2018-08-04T17:03:03.278Z,75.68
2018-08-04T17:04:30.893Z,75.89
2018-08-04T17:06:02.667Z,75.89
2018-08-04T17:07:26.346Z,77.13
2018-08-04T17:08:54.028Z,76.41
2018-08-04T17:10:21.656Z,77.97
2018-08-04T17:11:49.362Z,78.11
2018-08-04T17:13:16.820Z,79.84
2018-08-04T17:14:44.344Z,80.10
2018-08-04T17:16:15.770Z,80.87
2018-08-04T17:17:43.377Z,82.24
2018-08-04T17:19:06.301Z,82.38
2018-08-04T17:20:37.510Z,81.42
2018-08-04T17:22:01.236Z,81.68
2018-08-04T17:23:32.876Z,82.94
2018-08-04T17:25:00.583Z,81.90
2018-08-04T17:26:24.224Z,83.42
2018-08-04T17:27:51.503Z,82.32
2018-08-04T17:29:19.311Z,83.80
2018-08-04T17:30:50.937Z,86.73
2018-08-04T17:32:14.492Z,87.05
2018-08-04T17:33:46.082Z,86.31
2018-08-04T17:35:13.671Z,86.35
2018-08-04T17:36:37.333Z,87.57
2018-08-04T17:38:04.983Z,87.48
2018-08-04T17:39:36.655Z,87.79
2018-08-04T17:41:00.280Z,87.66
2018-08-04T17:42:28.012Z,90.70
2018-08-04T17:43:59.537Z,88.67
2018-08-04T17:45:27.289Z,89.94
2018-08-04T17:46:50.934Z,90.46
2018-08-04T17:48:18.185Z,90.59
2018-08-04T17:49:49.541Z,92.14
2018-08-04T17:51:12.909Z,92.81
2018-08-04T17:52:40.484Z,92.83
2018-08-04T17:54:07.973Z,93.74
2018-08-04T17:55:39.707Z,94.87
2018-08-04T17:57:03.000Z,95.64
2018-08-04T17:58:30.656Z,96.23
2018-08-04T17:59:58.298Z,97.12
2018-08-04T18:01:25.886Z,95.61
2018-08-04T18:02:57.495Z,95.00
2018-08-04T18:04:21.124Z,95.43
2018-08-04T18:05:48.775Z,95.79
2018-08-04T18:07:16.262Z,96.65
2018-08-04T18:08:43.761Z,95.94
2018-08-04T18:10:11.510Z,95.50
2018-08-04T18:11:42.768Z,95.58
2018-08-04T18:13:06.514Z,95.53
2018-08-04T18:14:38.165Z,95.97
2018-08-04T18:16:05.844Z,96.99
2018-08-04T18:17:29.528Z,97.47
2018-08-04T18:18:57.175Z,97.15
2018-08-04T18:20:28.825Z,98.77
2018-08-04T18:21:56.504Z,99.39
2018-08-04T18:23:24.143Z,100.00
2018-08-04T18:24:47.798Z,100.00
2018-08-04T18:26:15.549Z,100.00
2018-08-04T18:27:43.070Z,100.00
2018-08-04T18:29:10.502Z,100.00
2018-08-04T18:30:38.175Z,100.00
2018-08-04T18:32:05.764Z,100.00
2018-08-04T18:33:33.479Z,100.00
2018-08-04T18:35:05.091Z,100.00
2018-08-04T18:36:28.713Z,100.00
2018-08-04T18:37:56.350Z,100.00
2018-08-04T18:39:23.923Z,100.00
2018-08-04T18:40:51.207Z,100.00
2018-08-04T18:42:22.878Z,100.00
2018-08-04T18:43:50.509Z,100.00
2018-08-04T18:45:18.037Z,100.00
2018-08-04T18:46:41.320Z,100.00
2018-08-04T18:48:12.841Z,100.00